sensor_id;sensor_type;location;lat;lon;timestamp;temperature;humidity
49731;DHT22;35622;52.008;5.426;2024-03-02T00:00:21;11.20;84.90
49731;DHT22;35622;52.008;5.426;2024-03-02T00:02:50;11.30;84.70
49731;DHT22;35622;52.008;5.426;2024-03-02T00:05:19;11.40;84.80
49731;DHT22;35622;52.008;5.426;2024-03-02T00:07:47;11.40;84.00
49731;DHT22;35622;52.008;5.426;2024-03-02T00:10:22;11.70;83.90
49731;DHT22;35622;52.008;5.426;2024-03-02T00:12:50;11.50;83.50
49731;DHT22;35622;52.008;5.426;2024-03-02T00:18:18;11.90;83.60
49731;DHT22;35622;52.008;5.426;2024-03-02T00:20:44;11.90;82.30
49731;DHT22;35622;52.008;5.426;2024-03-02T00:23:10;11.90;82.50
49731;DHT22;35622;52.008;5.426;2024-03-02T00:28:22;11.70;83.80
49731;DHT22;35622;52.008;5.426;2024-03-02T00:33:19;11.90;84.30
49731;DHT22;35622;52.008;5.426;2024-03-02T00:35:46;12.20;83.50
49731;DHT22;35622;52.008;5.426;2024-03-02T00:38:12;11.90;82.70
49731;DHT22;35622;52.008;5.426;2024-03-02T00:40:40;11.80;85.30
49731;DHT22;35622;52.008;5.426;2024-03-02T00:43:05;11.80;86.50
49731;DHT22;35622;52.008;5.426;2024-03-02T00:45:31;11.80;86.40
49731;DHT22;35622;52.008;5.426;2024-03-02T00:47:57;11.80;87.10
49731;DHT22;35622;52.008;5.426;2024-03-02T00:50:23;11.90;86.60
49731;DHT22;35622;52.008;5.426;2024-03-02T00:52:48;11.70;87.10
49731;DHT22;35622;52.008;5.426;2024-03-02T00:55:14;11.60;88.30
49731;DHT22;35622;52.008;5.426;2024-03-02T00:57:40;11.70;88.10
49731;DHT22;35622;52.008;5.426;2024-03-02T01:00:06;11.60;88.80
49731;DHT22;35622;52.008;5.426;2024-03-02T01:02:35;11.70;88.80
49731;DHT22;35622;52.008;5.426;2024-03-02T01:05:01;11.60;89.20
49731;DHT22;35622;52.008;5.426;2024-03-02T01:07:27;11.80;89.10
49731;DHT22;35622;52.008;5.426;2024-03-02T01:09:52;11.80;88.80
49731;DHT22;35622;52.008;5.426;2024-03-02T01:12:18;12.00;89.20
49731;DHT22;35622;52.008;5.426;2024-03-02T01:14:43;12.10;89.00
49731;DHT22;35622;52.008;5.426;2024-03-02T01:17:09;12.10;89.10
49731;DHT22;35622;52.008;5.426;2024-03-02T01:19:35;12.10;90.10
49731;DHT22;35622;52.008;5.426;2024-03-02T01:22:00;12.00;90.30
49731;DHT22;35622;52.008;5.426;2024-03-02T01:24:26;12.10;90.40
49731;DHT22;35622;52.008;5.426;2024-03-02T01:26:52;11.90;90.50
49731;DHT22;35622;52.008;5.426;2024-03-02T01:29:17;11.80;91.00
49731;DHT22;35622;52.008;5.426;2024-03-02T01:31:43;11.70;90.80
49731;DHT22;35622;52.008;5.426;2024-03-02T01:34:09;11.70;91.10
49731;DHT22;35622;52.008;5.426;2024-03-02T01:36:34;11.80;91.00
49731;DHT22;35622;52.008;5.426;2024-03-02T01:39:00;11.80;90.40
49731;DHT22;35622;52.008;5.426;2024-03-02T01:41:26;11.70;90.80
49731;DHT22;35622;52.008;5.426;2024-03-02T01:43:52;11.90;90.40
49731;DHT22;35622;52.008;5.426;2024-03-02T01:46:17;11.90;90.50
49731;DHT22;35622;52.008;5.426;2024-03-02T01:48:43;12.00;90.40
49731;DHT22;35622;52.008;5.426;2024-03-02T01:51:08;12.10;90.30
49731;DHT22;35622;52.008;5.426;2024-03-02T01:53:35;12.10;90.20
49731;DHT22;35622;52.008;5.426;2024-03-02T01:56:02;11.90;90.20
49731;DHT22;35622;52.008;5.426;2024-03-02T01:58:27;12.00;90.30
49731;DHT22;35622;52.008;5.426;2024-03-02T02:00:53;12.20;90.20
49731;DHT22;35622;52.008;5.426;2024-03-02T02:03:19;12.10;90.20
49731;DHT22;35622;52.008;5.426;2024-03-02T02:05:45;12.00;90.50
49731;DHT22;35622;52.008;5.426;2024-03-02T02:08:12;12.00;90.60
49731;DHT22;35622;52.008;5.426;2024-03-02T02:10:38;11.80;90.60
49731;DHT22;35622;52.008;5.426;2024-03-02T02:13:03;11.60;91.10
49731;DHT22;35622;52.008;5.426;2024-03-02T02:15:29;11.60;91.30
49731;DHT22;35622;52.008;5.426;2024-03-02T02:17:57;11.60;91.30
49731;DHT22;35622;52.008;5.426;2024-03-02T02:20:23;11.70;91.20
49731;DHT22;35622;52.008;5.426;2024-03-02T02:22:57;11.70;91.40
49731;DHT22;35622;52.008;5.426;2024-03-02T02:25:23;11.80;91.70
49731;DHT22;35622;52.008;5.426;2024-03-02T02:27:49;11.80;91.80
49731;DHT22;35622;52.008;5.426;2024-03-02T02:30:22;11.70;91.90
49731;DHT22;35622;52.008;5.426;2024-03-02T02:32:47;11.60;92.30
49731;DHT22;35622;52.008;5.426;2024-03-02T02:35:13;11.50;92.40
49731;DHT22;35622;52.008;5.426;2024-03-02T02:37:39;11.20;92.30
49731;DHT22;35622;52.008;5.426;2024-03-02T02:40:05;11.00;93.30
49731;DHT22;35622;52.008;5.426;2024-03-02T02:42:31;10.90;94.00
49731;DHT22;35622;52.008;5.426;2024-03-02T02:44:56;11.00;94.20
49731;DHT22;35622;52.008;5.426;2024-03-02T02:47:22;11.00;94.40
49731;DHT22;35622;52.008;5.426;2024-03-02T02:49:47;11.10;94.30
49731;DHT22;35622;52.008;5.426;2024-03-02T02:52:13;11.20;94.30
49731;DHT22;35622;52.008;5.426;2024-03-02T02:54:38;11.30;94.20
49731;DHT22;35622;52.008;5.426;2024-03-02T02:57:04;11.20;93.80
49731;DHT22;35622;52.008;5.426;2024-03-02T02:59:30;11.20;93.70
49731;DHT22;35622;52.008;5.426;2024-03-02T03:01:55;10.90;93.80
49731;DHT22;35622;52.008;5.426;2024-03-02T03:04:21;11.00;94.00
49731;DHT22;35622;52.008;5.426;2024-03-02T03:06:46;11.00;93.90
49731;DHT22;35622;52.008;5.426;2024-03-02T03:09:12;10.90;94.00
49731;DHT22;35622;52.008;5.426;2024-03-02T03:11:37;10.80;93.50
49731;DHT22;35622;52.008;5.426;2024-03-02T03:14:03;10.70;93.80
49731;DHT22;35622;52.008;5.426;2024-03-02T03:16:30;10.80;93.70
49731;DHT22;35622;52.008;5.426;2024-03-02T03:18:56;10.80;93.70
49731;DHT22;35622;52.008;5.426;2024-03-02T03:21:21;10.90;93.40
49731;DHT22;35622;52.008;5.426;2024-03-02T03:23:47;10.80;93.10
49731;DHT22;35622;52.008;5.426;2024-03-02T03:26:13;10.90;93.20
49731;DHT22;35622;52.008;5.426;2024-03-02T03:28:38;10.90;93.20
49731;DHT22;35622;52.008;5.426;2024-03-02T03:31:04;11.00;93.30
49731;DHT22;35622;52.008;5.426;2024-03-02T03:33:30;11.10;93.10
49731;DHT22;35622;52.008;5.426;2024-03-02T03:35:55;11.00;93.10
49731;DHT22;35622;52.008;5.426;2024-03-02T03:38:21;11.10;93.00
49731;DHT22;35622;52.008;5.426;2024-03-02T03:40:46;11.00;92.90
49731;DHT22;35622;52.008;5.426;2024-03-02T03:43:13;10.90;93.00
49731;DHT22;35622;52.008;5.426;2024-03-02T03:45:38;10.60;93.00
49731;DHT22;35622;52.008;5.426;2024-03-02T03:48:05;10.80;93.30
49731;DHT22;35622;52.008;5.426;2024-03-02T03:50:31;10.70;93.20
49731;DHT22;35622;52.008;5.426;2024-03-02T03:52:56;10.70;93.30
49731;DHT22;35622;52.008;5.426;2024-03-02T03:55:22;10.80;93.30
49731;DHT22;35622;52.008;5.426;2024-03-02T03:57:47;11.00;93.30
49731;DHT22;35622;52.008;5.426;2024-03-02T04:00:13;11.00;92.80
49731;DHT22;35622;52.008;5.426;2024-03-02T04:02:39;11.10;92.90
49731;DHT22;35622;52.008;5.426;2024-03-02T04:05:05;11.20;92.20
49731;DHT22;35622;52.008;5.426;2024-03-02T04:07:35;10.90;92.10
49731;DHT22;35622;52.008;5.426;2024-03-02T04:10:06;11.00;92.60
49731;DHT22;35622;52.008;5.426;2024-03-02T04:12:33;10.90;92.70
49731;DHT22;35622;52.008;5.426;2024-03-02T04:14:59;11.00;92.50
49731;DHT22;35622;52.008;5.426;2024-03-02T04:17:25;11.00;92.60
49731;DHT22;35622;52.008;5.426;2024-03-02T04:19:50;11.00;92.20
49731;DHT22;35622;52.008;5.426;2024-03-02T04:22:16;11.00;92.30
49731;DHT22;35622;52.008;5.426;2024-03-02T04:24:41;10.80;92.10
49731;DHT22;35622;52.008;5.426;2024-03-02T04:27:07;11.00;92.30
49731;DHT22;35622;52.008;5.426;2024-03-02T04:29:33;11.10;92.30
49731;DHT22;35622;52.008;5.426;2024-03-02T04:31:58;11.20;92.00
49731;DHT22;35622;52.008;5.426;2024-03-02T04:34:24;11.30;91.60
49731;DHT22;35622;52.008;5.426;2024-03-02T04:36:49;11.30;91.60
49731;DHT22;35622;52.008;5.426;2024-03-02T04:39:15;11.10;91.50
49731;DHT22;35622;52.008;5.426;2024-03-02T04:41:41;11.00;91.60
49731;DHT22;35622;52.008;5.426;2024-03-02T04:44:07;10.90;91.70
49731;DHT22;35622;52.008;5.426;2024-03-02T04:46:33;11.00;91.80
49731;DHT22;35622;52.008;5.426;2024-03-02T04:48:59;11.10;91.40
49731;DHT22;35622;52.008;5.426;2024-03-02T04:51:24;11.20;91.20
49731;DHT22;35622;52.008;5.426;2024-03-02T04:53:50;11.20;90.50
49731;DHT22;35622;52.008;5.426;2024-03-02T04:56:15;11.00;90.80
49731;DHT22;35622;52.008;5.426;2024-03-02T04:58:56;10.90;91.00
49731;DHT22;35622;52.008;5.426;2024-03-02T05:01:21;11.00;91.20
49731;DHT22;35622;52.008;5.426;2024-03-02T05:03:47;11.30;91.20
49731;DHT22;35622;52.008;5.426;2024-03-02T05:06:13;11.10;90.90
49731;DHT22;35622;52.008;5.426;2024-03-02T05:08:38;10.90;90.70
49731;DHT22;35622;52.008;5.426;2024-03-02T05:11:04;10.90;90.70
49731;DHT22;35622;52.008;5.426;2024-03-02T05:13:48;11.00;90.50
49731;DHT22;35622;52.008;5.426;2024-03-02T05:16:13;10.90;90.90
49731;DHT22;35622;52.008;5.426;2024-03-02T05:18:39;11.00;90.90
49731;DHT22;35622;52.008;5.426;2024-03-02T05:21:05;11.20;90.60
49731;DHT22;35622;52.008;5.426;2024-03-02T05:23:30;11.10;90.30
49731;DHT22;35622;52.008;5.426;2024-03-02T05:25:56;11.00;90.30
49731;DHT22;35622;52.008;5.426;2024-03-02T05:28:21;10.90;90.60
49731;DHT22;35622;52.008;5.426;2024-03-02T05:30:47;10.90;90.50
49731;DHT22;35622;52.008;5.426;2024-03-02T05:33:13;10.80;90.70
49731;DHT22;35622;52.008;5.426;2024-03-02T05:35:38;10.90;90.40
49731;DHT22;35622;52.008;5.426;2024-03-02T05:38:04;10.80;89.40
49731;DHT22;35622;52.008;5.426;2024-03-02T05:40:29;10.80;90.50
49731;DHT22;35622;52.008;5.426;2024-03-02T05:42:55;10.90;90.40
49731;DHT22;35622;52.008;5.426;2024-03-02T05:45:20;10.80;90.10
49731;DHT22;35622;52.008;5.426;2024-03-02T05:47:46;10.90;90.00
49731;DHT22;35622;52.008;5.426;2024-03-02T05:50:12;10.80;89.80
49731;DHT22;35622;52.008;5.426;2024-03-02T05:52:37;11.00;89.50
49731;DHT22;35622;52.008;5.426;2024-03-02T05:55:04;11.20;89.30
49731;DHT22;35622;52.008;5.426;2024-03-02T05:57:30;11.20;88.30
49731;DHT22;35622;52.008;5.426;2024-03-02T06:00:20;11.20;89.00
49731;DHT22;35622;52.008;5.426;2024-03-02T06:02:47;11.00;88.90
49731;DHT22;35622;52.008;5.426;2024-03-02T06:05:13;10.90;90.00
49731;DHT22;35622;52.008;5.426;2024-03-02T06:07:40;10.80;90.30
49731;DHT22;35622;52.008;5.426;2024-03-02T06:10:06;10.60;90.80
49731;DHT22;35622;52.008;5.426;2024-03-02T06:12:32;10.80;90.10
49731;DHT22;35622;52.008;5.426;2024-03-02T06:14:58;10.90;90.10
49731;DHT22;35622;52.008;5.426;2024-03-02T06:17:24;11.00;90.20
49731;DHT22;35622;52.008;5.426;2024-03-02T06:19:49;10.90;90.10
49731;DHT22;35622;52.008;5.426;2024-03-02T06:22:15;10.80;90.50
49731;DHT22;35622;52.008;5.426;2024-03-02T06:24:40;11.00;90.00
49731;DHT22;35622;52.008;5.426;2024-03-02T06:27:06;11.00;90.00
49731;DHT22;35622;52.008;5.426;2024-03-02T06:29:34;11.00;90.00
49731;DHT22;35622;52.008;5.426;2024-03-02T06:32:00;11.00;90.20
49731;DHT22;35622;52.008;5.426;2024-03-02T06:34:26;11.10;90.10
49731;DHT22;35622;52.008;5.426;2024-03-02T06:36:51;11.20;89.20
49731;DHT22;35622;52.008;5.426;2024-03-02T06:39:17;11.10;90.00
49731;DHT22;35622;52.008;5.426;2024-03-02T06:41:42;11.10;90.10
49731;DHT22;35622;52.008;5.426;2024-03-02T06:44:08;11.00;90.00
49731;DHT22;35622;52.008;5.426;2024-03-02T06:46:34;11.00;90.00
49731;DHT22;35622;52.008;5.426;2024-03-02T06:48:59;11.00;89.80
49731;DHT22;35622;52.008;5.426;2024-03-02T06:51:27;11.10;90.00
49731;DHT22;35622;52.008;5.426;2024-03-02T06:53:53;11.10;89.00
49731;DHT22;35622;52.008;5.426;2024-03-02T06:56:18;11.20;89.80
49731;DHT22;35622;52.008;5.426;2024-03-02T06:58:44;11.30;89.30
49731;DHT22;35622;52.008;5.426;2024-03-02T07:01:10;11.30;88.90
49731;DHT22;35622;52.008;5.426;2024-03-02T07:03:35;11.30;88.90
49731;DHT22;35622;52.008;5.426;2024-03-02T07:06:01;11.40;89.00
49731;DHT22;35622;52.008;5.426;2024-03-02T07:08:26;11.50;88.40
49731;DHT22;35622;52.008;5.426;2024-03-02T07:10:52;11.60;88.00
49731;DHT22;35622;52.008;5.426;2024-03-02T07:13:18;11.50;88.20
49731;DHT22;35622;52.008;5.426;2024-03-02T07:15:43;11.50;88.70
49731;DHT22;35622;52.008;5.426;2024-03-02T07:18:32;11.50;88.80
49731;DHT22;35622;52.008;5.426;2024-03-02T07:20:59;11.60;88.50
49731;DHT22;35622;52.008;5.426;2024-03-02T07:23:26;11.90;88.60
49731;DHT22;35622;52.008;5.426;2024-03-02T07:25:55;12.30;87.40
49731;DHT22;35622;52.008;5.426;2024-03-02T07:28:22;12.70;84.30
49731;DHT22;35622;52.008;5.426;2024-03-02T07:30:58;13.10;83.70
49731;DHT22;35622;52.008;5.426;2024-03-02T07:33:24;13.40;82.30
49731;DHT22;35622;52.008;5.426;2024-03-02T07:35:49;13.70;79.90
49731;DHT22;35622;52.008;5.426;2024-03-02T07:38:15;13.80;78.60
49731;DHT22;35622;52.008;5.426;2024-03-02T07:40:41;14.20;78.20
49731;DHT22;35622;52.008;5.426;2024-03-02T07:43:07;14.50;78.00
49731;DHT22;35622;52.008;5.426;2024-03-02T07:45:34;14.50;77.00
49731;DHT22;35622;52.008;5.426;2024-03-02T07:48:01;14.50;76.90
49731;DHT22;35622;52.008;5.426;2024-03-02T07:50:28;14.50;75.90
49731;DHT22;35622;52.008;5.426;2024-03-02T07:52:54;14.40;75.10
49731;DHT22;35622;52.008;5.426;2024-03-02T07:55:19;14.20;76.70
49731;DHT22;35622;52.008;5.426;2024-03-02T07:57:45;14.20;77.40
49731;DHT22;35622;52.008;5.426;2024-03-02T08:00:11;14.00;76.70
49731;DHT22;35622;52.008;5.426;2024-03-02T08:02:37;13.90;78.10
49731;DHT22;35622;52.008;5.426;2024-03-02T08:05:02;13.90;77.70
49731;DHT22;35622;52.008;5.426;2024-03-02T08:07:28;13.70;77.60
49731;DHT22;35622;52.008;5.426;2024-03-02T08:09:54;13.60;78.20
49731;DHT22;35622;52.008;5.426;2024-03-02T08:12:19;13.40;78.60
49731;DHT22;35622;52.008;5.426;2024-03-02T08:14:47;12.90;79.20
49731;DHT22;35622;52.008;5.426;2024-03-02T08:17:12;13.10;80.20
49731;DHT22;35622;52.008;5.426;2024-03-02T08:19:38;13.00;79.70
49731;DHT22;35622;52.008;5.426;2024-03-02T08:22:04;12.90;80.20
49731;DHT22;35622;52.008;5.426;2024-03-02T08:24:29;12.90;79.70
49731;DHT22;35622;52.008;5.426;2024-03-02T08:26:55;13.20;79.50
49731;DHT22;35622;52.008;5.426;2024-03-02T08:29:20;13.50;80.00
49731;DHT22;35622;52.008;5.426;2024-03-02T08:31:46;14.00;78.20
49731;DHT22;35622;52.008;5.426;2024-03-02T08:34:12;14.80;78.20
49731;DHT22;35622;52.008;5.426;2024-03-02T08:36:37;15.60;72.70
49731;DHT22;35622;52.008;5.426;2024-03-02T08:39:03;15.90;71.00
49731;DHT22;35622;52.008;5.426;2024-03-02T08:41:32;16.40;70.00
49731;DHT22;35622;52.008;5.426;2024-03-02T08:43:58;17.00;68.30
49731;DHT22;35622;52.008;5.426;2024-03-02T08:46:24;17.40;65.90
49731;DHT22;35622;52.008;5.426;2024-03-02T08:48:49;18.10;63.60
49731;DHT22;35622;52.008;5.426;2024-03-02T08:51:15;18.60;60.30
49731;DHT22;35622;52.008;5.426;2024-03-02T08:53:41;18.80;58.30
49731;DHT22;35622;52.008;5.426;2024-03-02T08:56:07;19.00;58.60
49731;DHT22;35622;52.008;5.426;2024-03-02T08:58:33;19.80;58.20
49731;DHT22;35622;52.008;5.426;2024-03-02T09:00:59;20.10;54.90
49731;DHT22;35622;52.008;5.426;2024-03-02T09:03:24;20.40;54.60
49731;DHT22;35622;52.008;5.426;2024-03-02T09:05:50;20.20;53.60
49731;DHT22;35622;52.008;5.426;2024-03-02T09:08:15;20.20;52.10
49731;DHT22;35622;52.008;5.426;2024-03-02T09:10:41;20.50;52.80
49731;DHT22;35622;52.008;5.426;2024-03-02T09:13:07;21.10;51.00
49731;DHT22;35622;52.008;5.426;2024-03-02T09:15:32;21.20;49.60
49731;DHT22;35622;52.008;5.426;2024-03-02T09:17:58;21.70;47.40
49731;DHT22;35622;52.008;5.426;2024-03-02T09:20:23;22.30;47.30
49731;DHT22;35622;52.008;5.426;2024-03-02T09:22:49;22.20;46.00
49731;DHT22;35622;52.008;5.426;2024-03-02T09:25:15;22.10;44.70
49731;DHT22;35622;52.008;5.426;2024-03-02T09:27:41;21.70;45.60
49731;DHT22;35622;52.008;5.426;2024-03-02T09:30:10;21.50;45.40
49731;DHT22;35622;52.008;5.426;2024-03-02T09:32:37;21.60;47.10
49731;DHT22;35622;52.008;5.426;2024-03-02T09:35:03;21.70;45.50
49731;DHT22;35622;52.008;5.426;2024-03-02T09:37:28;21.60;45.40
49731;DHT22;35622;52.008;5.426;2024-03-02T09:39:54;21.10;45.60
49731;DHT22;35622;52.008;5.426;2024-03-02T09:42:20;20.90;47.00
49731;DHT22;35622;52.008;5.426;2024-03-02T09:44:47;20.80;45.50
49731;DHT22;35622;52.008;5.426;2024-03-02T09:47:13;20.60;46.60
49731;DHT22;35622;52.008;5.426;2024-03-02T09:49:39;20.80;45.50
49731;DHT22;35622;52.008;5.426;2024-03-02T09:52:05;20.70;47.30
49731;DHT22;35622;52.008;5.426;2024-03-02T09:54:32;21.10;47.30
49731;DHT22;35622;52.008;5.426;2024-03-02T09:56:57;20.80;45.30
49731;DHT22;35622;52.008;5.426;2024-03-02T09:59:23;20.90;46.20
49731;DHT22;35622;52.008;5.426;2024-03-02T10:01:56;20.60;45.00
49731;DHT22;35622;52.008;5.426;2024-03-02T10:04:26;20.20;46.20
49731;DHT22;35622;52.008;5.426;2024-03-02T10:07:10;20.30;45.60
49731;DHT22;35622;52.008;5.426;2024-03-02T10:09:37;20.50;48.10
49731;DHT22;35622;52.008;5.426;2024-03-02T10:12:07;20.80;46.80
49731;DHT22;35622;52.008;5.426;2024-03-02T10:14:33;21.20;45.20
49731;DHT22;35622;52.008;5.426;2024-03-02T10:17:07;21.30;44.80
49731;DHT22;35622;52.008;5.426;2024-03-02T10:19:33;21.00;44.80
49731;DHT22;35622;52.008;5.426;2024-03-02T10:22:01;20.70;44.80
49731;DHT22;35622;52.008;5.426;2024-03-02T10:24:30;20.10;44.30
49731;DHT22;35622;52.008;5.426;2024-03-02T10:27:00;20.00;46.70
49731;DHT22;35622;52.008;5.426;2024-03-02T10:29:25;20.50;47.10
49731;DHT22;35622;52.008;5.426;2024-03-02T10:31:54;21.00;45.60
49731;DHT22;35622;52.008;5.426;2024-03-02T10:34:19;21.30;44.50
49731;DHT22;35622;52.008;5.426;2024-03-02T10:36:47;21.00;43.90
49731;DHT22;35622;52.008;5.426;2024-03-02T10:39:15;20.50;44.00
49731;DHT22;35622;52.008;5.426;2024-03-02T10:41:41;20.20;45.40
49731;DHT22;35622;52.008;5.426;2024-03-02T10:44:08;20.70;46.70
49731;DHT22;35622;52.008;5.426;2024-03-02T10:46:35;21.10;46.00
49731;DHT22;35622;52.008;5.426;2024-03-02T10:49:02;21.20;43.50
49731;DHT22;35622;52.008;5.426;2024-03-02T10:51:31;20.80;44.80
49731;DHT22;35622;52.008;5.426;2024-03-02T10:54:01;20.90;46.30
49731;DHT22;35622;52.008;5.426;2024-03-02T10:56:47;20.90;45.10
49731;DHT22;35622;52.008;5.426;2024-03-02T10:59:36;20.60;44.80
49731;DHT22;35622;52.008;5.426;2024-03-02T11:02:05;20.60;45.00
49731;DHT22;35622;52.008;5.426;2024-03-02T11:04:34;20.00;47.40
49731;DHT22;35622;52.008;5.426;2024-03-02T11:07:02;19.90;46.40
49731;DHT22;35622;52.008;5.426;2024-03-02T11:09:29;19.80;46.40
49731;DHT22;35622;52.008;5.426;2024-03-02T11:15:00;18.50;47.80
49731;DHT22;35622;52.008;5.426;2024-03-02T11:17:26;18.20;48.90
49731;DHT22;35622;52.008;5.426;2024-03-02T11:19:52;17.90;49.00
49731;DHT22;35622;52.008;5.426;2024-03-02T11:22:19;17.30;50.00
49731;DHT22;35622;52.008;5.426;2024-03-02T11:24:52;17.30;49.00
49731;DHT22;35622;52.008;5.426;2024-03-02T11:33:08;17.40;48.90
49731;DHT22;35622;52.008;5.426;2024-03-02T11:35:38;17.50;49.60
49731;DHT22;35622;52.008;5.426;2024-03-02T11:38:06;17.60;49.20
49731;DHT22;35622;52.008;5.426;2024-03-02T11:40:32;18.00;48.50
49731;DHT22;35622;52.008;5.426;2024-03-02T11:43:00;18.20;47.80
49731;DHT22;35622;52.008;5.426;2024-03-02T11:45:29;18.00;47.40
49731;DHT22;35622;52.008;5.426;2024-03-02T11:47:57;17.80;47.80
49731;DHT22;35622;52.008;5.426;2024-03-02T11:50:36;18.20;50.20
49731;DHT22;35622;52.008;5.426;2024-03-02T11:53:09;18.80;47.60
49731;DHT22;35622;52.008;5.426;2024-03-02T11:55:39;18.60;46.70
49731;DHT22;35622;52.008;5.426;2024-03-02T11:58:12;18.60;46.20
49731;DHT22;35622;52.008;5.426;2024-03-02T12:00:38;18.50;47.40
49731;DHT22;35622;52.008;5.426;2024-03-02T12:03:09;18.30;46.90
49731;DHT22;35622;52.008;5.426;2024-03-02T12:05:35;18.10;47.60
49731;DHT22;35622;52.008;5.426;2024-03-02T12:08:03;18.00;47.40
49731;DHT22;35622;52.008;5.426;2024-03-02T12:10:30;18.00;47.70
49731;DHT22;35622;52.008;5.426;2024-03-02T12:13:00;18.00;46.20
49731;DHT22;35622;52.008;5.426;2024-03-02T12:15:36;18.40;47.60
49731;DHT22;35622;52.008;5.426;2024-03-02T12:18:03;18.80;48.30
49731;DHT22;35622;52.008;5.426;2024-03-02T12:20:30;18.80;45.70
49731;DHT22;35622;52.008;5.426;2024-03-02T12:23:01;19.00;45.70
49731;DHT22;35622;52.008;5.426;2024-03-02T12:25:28;18.40;45.50
49731;DHT22;35622;52.008;5.426;2024-03-02T12:27:56;18.10;45.90
49731;DHT22;35622;52.008;5.426;2024-03-02T12:30:23;17.40;47.30
49731;DHT22;35622;52.008;5.426;2024-03-02T12:32:49;17.40;49.00
49731;DHT22;35622;52.008;5.426;2024-03-02T12:35:15;17.70;49.40
49731;DHT22;35622;52.008;5.426;2024-03-02T12:37:47;17.60;48.60
49731;DHT22;35622;52.008;5.426;2024-03-02T12:40:14;17.40;47.70
49731;DHT22;35622;52.008;5.426;2024-03-02T12:42:40;17.40;49.10
49731;DHT22;35622;52.008;5.426;2024-03-02T12:45:07;17.50;49.00
49731;DHT22;35622;52.008;5.426;2024-03-02T12:47:34;17.70;50.50
49731;DHT22;35622;52.008;5.426;2024-03-02T12:50:00;17.80;47.40
49731;DHT22;35622;52.008;5.426;2024-03-02T12:52:26;17.80;47.90
49731;DHT22;35622;52.008;5.426;2024-03-02T12:54:52;17.70;48.10
49731;DHT22;35622;52.008;5.426;2024-03-02T12:57:20;17.50;49.90
49731;DHT22;35622;52.008;5.426;2024-03-02T12:59:47;17.20;51.70
49731;DHT22;35622;52.008;5.426;2024-03-02T13:02:19;16.90;51.30
49731;DHT22;35622;52.008;5.426;2024-03-02T13:04:52;16.50;53.10
49731;DHT22;35622;52.008;5.426;2024-03-02T13:07:23;16.00;54.40
49731;DHT22;35622;52.008;5.426;2024-03-02T13:09:49;15.60;55.70
49731;DHT22;35622;52.008;5.426;2024-03-02T13:12:16;15.80;56.10
49731;DHT22;35622;52.008;5.426;2024-03-02T13:14:42;15.70;57.20
49731;DHT22;35622;52.008;5.426;2024-03-02T13:17:11;15.70;56.40
49731;DHT22;35622;52.008;5.426;2024-03-02T13:22:18;15.30;57.50
49731;DHT22;35622;52.008;5.426;2024-03-02T13:24:44;15.40;58.40
49731;DHT22;35622;52.008;5.426;2024-03-02T13:27:10;15.40;57.00
49731;DHT22;35622;52.008;5.426;2024-03-02T13:29:35;15.40;58.90
49731;DHT22;35622;52.008;5.426;2024-03-02T13:32:01;15.60;58.00
49731;DHT22;35622;52.008;5.426;2024-03-02T13:34:26;15.70;57.80
49731;DHT22;35622;52.008;5.426;2024-03-02T13:36:52;15.80;59.40
49731;DHT22;35622;52.008;5.426;2024-03-02T13:39:18;15.70;56.80
49731;DHT22;35622;52.008;5.426;2024-03-02T13:41:44;15.60;57.30
49731;DHT22;35622;52.008;5.426;2024-03-02T13:44:17;15.60;56.70
49731;DHT22;35622;52.008;5.426;2024-03-02T13:46:43;15.60;56.20
49731;DHT22;35622;52.008;5.426;2024-03-02T13:49:11;15.70;56.80
49731;DHT22;35622;52.008;5.426;2024-03-02T13:51:37;15.50;56.50
49731;DHT22;35622;52.008;5.426;2024-03-02T13:54:02;15.40;56.40
49731;DHT22;35622;52.008;5.426;2024-03-02T13:56:29;15.60;56.40
49731;DHT22;35622;52.008;5.426;2024-03-02T13:58:55;15.80;55.90
49731;DHT22;35622;52.008;5.426;2024-03-02T14:01:20;15.90;56.60
49731;DHT22;35622;52.008;5.426;2024-03-02T14:03:46;15.80;55.50
49731;DHT22;35622;52.008;5.426;2024-03-02T14:06:12;15.50;56.60
49731;DHT22;35622;52.008;5.426;2024-03-02T14:08:38;15.40;56.30
49731;DHT22;35622;52.008;5.426;2024-03-02T14:11:03;15.30;57.60
49731;DHT22;35622;52.008;5.426;2024-03-02T14:13:29;15.40;56.60
49731;DHT22;35622;52.008;5.426;2024-03-02T14:15:55;15.40;56.40
49731;DHT22;35622;52.008;5.426;2024-03-02T14:18:21;15.20;56.30
49731;DHT22;35622;52.008;5.426;2024-03-02T14:20:47;15.30;57.90
49731;DHT22;35622;52.008;5.426;2024-03-02T14:23:18;15.40;57.30
49731;DHT22;35622;52.008;5.426;2024-03-02T14:25:44;15.50;56.20
49731;DHT22;35622;52.008;5.426;2024-03-02T14:28:10;15.70;56.00
49731;DHT22;35622;52.008;5.426;2024-03-02T14:30:37;15.70;55.50
49731;DHT22;35622;52.008;5.426;2024-03-02T14:33:03;15.70;56.50
49731;DHT22;35622;52.008;5.426;2024-03-02T14:35:28;15.50;56.40
49731;DHT22;35622;52.008;5.426;2024-03-02T14:37:54;15.50;57.20
49731;DHT22;35622;52.008;5.426;2024-03-02T14:40:21;15.80;56.80
49731;DHT22;35622;52.008;5.426;2024-03-02T14:42:47;15.70;56.40
49731;DHT22;35622;52.008;5.426;2024-03-02T14:45:14;15.80;56.10
49731;DHT22;35622;52.008;5.426;2024-03-02T14:47:40;15.60;55.60
49731;DHT22;35622;52.008;5.426;2024-03-02T14:50:05;15.70;56.40
49731;DHT22;35622;52.008;5.426;2024-03-02T14:52:32;15.50;55.90
49731;DHT22;35622;52.008;5.426;2024-03-02T14:54:58;15.60;56.70
49731;DHT22;35622;52.008;5.426;2024-03-02T14:57:24;15.50;57.20
49731;DHT22;35622;52.008;5.426;2024-03-02T14:59:49;15.30;57.10
49731;DHT22;35622;52.008;5.426;2024-03-02T15:02:15;15.30;57.30
49731;DHT22;35622;52.008;5.426;2024-03-02T15:04:40;15.10;57.80
49731;DHT22;35622;52.008;5.426;2024-03-02T15:07:06;15.30;57.50
49731;DHT22;35622;52.008;5.426;2024-03-02T15:09:32;15.10;56.70
49731;DHT22;35622;52.008;5.426;2024-03-02T15:12:00;14.90;57.50
49731;DHT22;35622;52.008;5.426;2024-03-02T15:14:26;14.90;57.00
49731;DHT22;35622;52.008;5.426;2024-03-02T15:16:51;15.10;57.60
49731;DHT22;35622;52.008;5.426;2024-03-02T15:19:17;15.20;57.50
49731;DHT22;35622;52.008;5.426;2024-03-02T15:21:42;15.30;57.40
49731;DHT22;35622;52.008;5.426;2024-03-02T15:24:08;15.40;57.30
49731;DHT22;35622;52.008;5.426;2024-03-02T15:26:34;15.60;56.90
49731;DHT22;35622;52.008;5.426;2024-03-02T15:28:59;15.30;57.30
49731;DHT22;35622;52.008;5.426;2024-03-02T15:31:25;15.40;57.60
49731;DHT22;35622;52.008;5.426;2024-03-02T15:33:51;15.50;57.40
49731;DHT22;35622;52.008;5.426;2024-03-02T15:36:18;15.50;57.20
49731;DHT22;35622;52.008;5.426;2024-03-02T15:38:44;15.40;57.20
49731;DHT22;35622;52.008;5.426;2024-03-02T15:41:09;15.40;58.00
49731;DHT22;35622;52.008;5.426;2024-03-02T15:43:35;15.40;57.70
49731;DHT22;35622;52.008;5.426;2024-03-02T15:46:01;15.20;58.80